sensor_id;sensor_type;location;lat;lon;timestamp;temperature;humidity
42227;DHT22;27892;52.378;13.122;2023-08-06T00:00:07;21.10;67.60
42227;DHT22;27892;52.378;13.122;2023-08-06T00:02:34;21.10;67.90
42227;DHT22;27892;52.378;13.122;2023-08-06T00:04:59;21.20;67.90
42227;DHT22;27892;52.378;13.122;2023-08-06T00:07:25;21.30;67.60
42227;DHT22;27892;52.378;13.122;2023-08-06T00:09:51;21.40;67.60
42227;DHT22;27892;52.378;13.122;2023-08-06T00:12:16;21.40;67.60
42227;DHT22;27892;52.378;13.122;2023-08-06T00:14:42;21.30;67.60
42227;DHT22;27892;52.378;13.122;2023-08-06T00:17:08;21.20;67.90
42227;DHT22;27892;52.378;13.122;2023-08-06T00:19:33;21.20;68.20
42227;DHT22;27892;52.378;13.122;2023-08-06T00:21:59;21.10;68.40
42227;DHT22;27892;52.378;13.122;2023-08-06T00:24:25;21.10;68.70
42227;DHT22;27892;52.378;13.122;2023-08-06T00:26:50;21.10;69.70
42227;DHT22;27892;52.378;13.122;2023-08-06T00:29:16;21.10;69.30
42227;DHT22;27892;52.378;13.122;2023-08-06T00:31:42;21.20;69.20
42227;DHT22;27892;52.378;13.122;2023-08-06T00:34:07;21.20;69.20
42227;DHT22;27892;52.378;13.122;2023-08-06T00:36:33;21.30;69.10
42227;DHT22;27892;52.378;13.122;2023-08-06T00:38:58;21.30;68.80
42227;DHT22;27892;52.378;13.122;2023-08-06T00:41:24;21.40;68.70
42227;DHT22;27892;52.378;13.122;2023-08-06T00:43:50;21.40;68.80
42227;DHT22;27892;52.378;13.122;2023-08-06T00:46:15;21.30;68.90
42227;DHT22;27892;52.378;13.122;2023-08-06T00:48:42;21.30;69.10
42227;DHT22;27892;52.378;13.122;2023-08-06T00:51:09;21.20;69.40
42227;DHT22;27892;52.378;13.122;2023-08-06T00:53:37;21.20;69.50
42227;DHT22;27892;52.378;13.122;2023-08-06T00:56:02;21.20;69.60
42227;DHT22;27892;52.378;13.122;2023-08-06T00:58:28;21.10;69.80
42227;DHT22;27892;52.378;13.122;2023-08-06T01:00:54;21.10;70.10
42227;DHT22;27892;52.378;13.122;2023-08-06T01:03:20;21.00;70.40
42227;DHT22;27892;52.378;13.122;2023-08-06T01:05:46;21.00;70.50
42227;DHT22;27892;52.378;13.122;2023-08-06T01:13:46;20.90;71.70
42227;DHT22;27892;52.378;13.122;2023-08-06T01:16:20;20.90;71.80
42227;DHT22;27892;52.378;13.122;2023-08-06T01:18:47;20.90;71.90
42227;DHT22;27892;52.378;13.122;2023-08-06T01:21:15;20.80;71.90
42227;DHT22;27892;52.378;13.122;2023-08-06T01:23:42;20.80;72.30
42227;DHT22;27892;52.378;13.122;2023-08-06T01:26:24;20.90;72.30
42227;DHT22;27892;52.378;13.122;2023-08-06T01:31:30;20.80;73.00
42227;DHT22;27892;52.378;13.122;2023-08-06T01:33:58;20.70;73.10
42227;DHT22;27892;52.378;13.122;2023-08-06T01:36:25;20.70;73.20
42227;DHT22;27892;52.378;13.122;2023-08-06T01:38:52;20.80;73.20
42227;DHT22;27892;52.378;13.122;2023-08-06T01:41:18;20.90;73.00
42227;DHT22;27892;52.378;13.122;2023-08-06T01:43:44;20.80;73.20
42227;DHT22;27892;52.378;13.122;2023-08-06T01:46:10;20.80;73.40
42227;DHT22;27892;52.378;13.122;2023-08-06T01:48:36;20.90;73.30
42227;DHT22;27892;52.378;13.122;2023-08-06T01:51:04;20.90;73.20
42227;DHT22;27892;52.378;13.122;2023-08-06T01:53:31;20.90;73.00
42227;DHT22;27892;52.378;13.122;2023-08-06T01:55:57;20.70;73.50
42227;DHT22;27892;52.378;13.122;2023-08-06T01:58:23;20.80;73.80
42227;DHT22;27892;52.378;13.122;2023-08-06T02:00:48;20.70;73.90
42227;DHT22;27892;52.378;13.122;2023-08-06T02:03:14;20.70;74.10
42227;DHT22;27892;52.378;13.122;2023-08-06T02:05:40;20.80;73.50
42227;DHT22;27892;52.378;13.122;2023-08-06T02:08:06;20.70;73.60
42227;DHT22;27892;52.378;13.122;2023-08-06T02:10:32;20.70;74.00
42227;DHT22;27892;52.378;13.122;2023-08-06T02:12:57;20.70;74.40
42227;DHT22;27892;52.378;13.122;2023-08-06T02:15:23;20.60;74.30
42227;DHT22;27892;52.378;13.122;2023-08-06T02:17:49;20.50;74.60
42227;DHT22;27892;52.378;13.122;2023-08-06T02:20:14;20.50;74.60
42227;DHT22;27892;52.378;13.122;2023-08-06T02:22:40;20.50;75.00
42227;DHT22;27892;52.378;13.122;2023-08-06T02:25:06;20.50;74.80
42227;DHT22;27892;52.378;13.122;2023-08-06T02:27:32;20.50;75.10
42227;DHT22;27892;52.378;13.122;2023-08-06T02:29:57;20.60;75.00
42227;DHT22;27892;52.378;13.122;2023-08-06T02:32:23;20.50;74.80
42227;DHT22;27892;52.378;13.122;2023-08-06T02:34:49;20.60;75.20
42227;DHT22;27892;52.378;13.122;2023-08-06T02:37:14;20.60;75.20
42227;DHT22;27892;52.378;13.122;2023-08-06T02:39:40;20.60;74.70
42227;DHT22;27892;52.378;13.122;2023-08-06T02:42:25;20.60;74.70
42227;DHT22;27892;52.378;13.122;2023-08-06T02:44:52;20.70;75.20
42227;DHT22;27892;52.378;13.122;2023-08-06T02:47:20;20.70;74.80
42227;DHT22;27892;52.378;13.122;2023-08-06T02:49:46;20.70;75.20
42227;DHT22;27892;52.378;13.122;2023-08-06T02:52:12;20.70;74.90
42227;DHT22;27892;52.378;13.122;2023-08-06T02:54:37;20.70;75.10
42227;DHT22;27892;52.378;13.122;2023-08-06T02:57:04;20.70;75.50
42227;DHT22;27892;52.378;13.122;2023-08-06T02:59:30;20.70;75.90
42227;DHT22;27892;52.378;13.122;2023-08-06T03:01:56;20.70;75.80
42227;DHT22;27892;52.378;13.122;2023-08-06T03:04:22;20.60;75.70
42227;DHT22;27892;52.378;13.122;2023-08-06T03:06:49;20.60;76.20
42227;DHT22;27892;52.378;13.122;2023-08-06T03:09:15;20.60;76.00
42227;DHT22;27892;52.378;13.122;2023-08-06T03:11:41;20.60;76.10
42227;DHT22;27892;52.378;13.122;2023-08-06T03:14:07;20.40;76.20
42227;DHT22;27892;52.378;13.122;2023-08-06T03:16:33;20.30;77.00
42227;DHT22;27892;52.378;13.122;2023-08-06T03:18:58;20.30;77.80
42227;DHT22;27892;52.378;13.122;2023-08-06T03:21:24;20.40;78.00
42227;DHT22;27892;52.378;13.122;2023-08-06T03:23:50;20.40;78.10
42227;DHT22;27892;52.378;13.122;2023-08-06T03:26:15;20.40;78.00
42227;DHT22;27892;52.378;13.122;2023-08-06T03:28:41;20.30;78.30
42227;DHT22;27892;52.378;13.122;2023-08-06T03:31:07;20.20;78.80
42227;DHT22;27892;52.378;13.122;2023-08-06T03:33:32;20.20;78.90
42227;DHT22;27892;52.378;13.122;2023-08-06T03:35:58;20.20;79.30
42227;DHT22;27892;52.378;13.122;2023-08-06T03:38:24;20.30;79.60
42227;DHT22;27892;52.378;13.122;2023-08-06T03:40:50;20.30;79.40
42227;DHT22;27892;52.378;13.122;2023-08-06T03:43:15;20.30;79.30
42227;DHT22;27892;52.378;13.122;2023-08-06T03:45:41;20.20;79.50
42227;DHT22;27892;52.378;13.122;2023-08-06T03:48:08;20.20;79.90
42227;DHT22;27892;52.378;13.122;2023-08-06T03:50:34;20.30;79.80
42227;DHT22;27892;52.378;13.122;2023-08-06T03:52:59;20.40;79.10
42227;DHT22;27892;52.378;13.122;2023-08-06T03:55:25;20.30;79.30
42227;DHT22;27892;52.378;13.122;2023-08-06T03:57:51;20.20;79.40
42227;DHT22;27892;52.378;13.122;2023-08-06T04:00:16;20.10;80.10
42227;DHT22;27892;52.378;13.122;2023-08-06T04:02:42;20.10;80.80
42227;DHT22;27892;52.378;13.122;2023-08-06T04:05:08;20.00;80.60
42227;DHT22;27892;52.378;13.122;2023-08-06T04:07:34;20.10;80.60
42227;DHT22;27892;52.378;13.122;2023-08-06T04:10:02;20.10;80.60
42227;DHT22;27892;52.378;13.122;2023-08-06T04:12:28;20.00;80.80
42227;DHT22;27892;52.378;13.122;2023-08-06T04:14:55;20.00;81.10
42227;DHT22;27892;52.378;13.122;2023-08-06T04:17:21;19.90;80.80
42227;DHT22;27892;52.378;13.122;2023-08-06T04:19:51;19.80;81.70
42227;DHT22;27892;52.378;13.122;2023-08-06T04:22:18;19.80;81.80
42227;DHT22;27892;52.378;13.122;2023-08-06T04:24:44;19.80;82.00
42227;DHT22;27892;52.378;13.122;2023-08-06T04:27:11;19.70;82.10
42227;DHT22;27892;52.378;13.122;2023-08-06T04:29:37;19.80;82.90
42227;DHT22;27892;52.378;13.122;2023-08-06T04:32:07;19.90;82.70
42227;DHT22;27892;52.378;13.122;2023-08-06T04:34:34;20.00;82.70
42227;DHT22;27892;52.378;13.122;2023-08-06T04:37:00;20.00;82.10
42227;DHT22;27892;52.378;13.122;2023-08-06T04:39:26;20.00;81.90
42227;DHT22;27892;52.378;13.122;2023-08-06T04:41:52;20.00;82.00
42227;DHT22;27892;52.378;13.122;2023-08-06T04:44:18;20.10;82.20
42227;DHT22;27892;52.378;13.122;2023-08-06T04:46:44;20.10;82.00
42227;DHT22;27892;52.378;13.122;2023-08-06T04:49:09;20.10;81.40
42227;DHT22;27892;52.378;13.122;2023-08-06T04:51:35;20.20;81.80
42227;DHT22;27892;52.378;13.122;2023-08-06T04:54:01;20.20;80.90
42227;DHT22;27892;52.378;13.122;2023-08-06T04:56:27;20.30;80.60
42227;DHT22;27892;52.378;13.122;2023-08-06T04:58:53;20.30;80.20
42227;DHT22;27892;52.378;13.122;2023-08-06T05:01:18;20.20;79.90
42227;DHT22;27892;52.378;13.122;2023-08-06T05:03:44;20.10;80.30
42227;DHT22;27892;52.378;13.122;2023-08-06T05:06:10;20.00;80.60
42227;DHT22;27892;52.378;13.122;2023-08-06T05:08:36;20.00;81.00
42227;DHT22;27892;52.378;13.122;2023-08-06T05:11:02;20.00;80.60
42227;DHT22;27892;52.378;13.122;2023-08-06T05:13:27;20.00;81.40
42227;DHT22;27892;52.378;13.122;2023-08-06T05:15:54;20.00;81.80
42227;DHT22;27892;52.378;13.122;2023-08-06T05:18:19;20.00;81.80
42227;DHT22;27892;52.378;13.122;2023-08-06T05:20:45;20.00;80.50
42227;DHT22;27892;52.378;13.122;2023-08-06T05:23:11;20.00;80.90
42227;DHT22;27892;52.378;13.122;2023-08-06T05:25:40;20.00;81.00
42227;DHT22;27892;52.378;13.122;2023-08-06T05:28:06;19.90;81.20
42227;DHT22;27892;52.378;13.122;2023-08-06T05:30:31;19.90;81.20
42227;DHT22;27892;52.378;13.122;2023-08-06T05:32:57;19.80;82.30
42227;DHT22;27892;52.378;13.122;2023-08-06T05:35:23;19.70;81.90
42227;DHT22;27892;52.378;13.122;2023-08-06T05:37:50;19.90;82.30
42227;DHT22;27892;52.378;13.122;2023-08-06T05:40:16;20.00;82.50
42227;DHT22;27892;52.378;13.122;2023-08-06T05:42:41;20.00;81.90
42227;DHT22;27892;52.378;13.122;2023-08-06T05:45:08;20.00;81.60
42227;DHT22;27892;52.378;13.122;2023-08-06T05:47:34;20.10;81.80
42227;DHT22;27892;52.378;13.122;2023-08-06T05:49:59;20.20;81.40
42227;DHT22;27892;52.378;13.122;2023-08-06T05:52:25;20.30;81.00
42227;DHT22;27892;52.378;13.122;2023-08-06T05:54:51;20.40;79.90
42227;DHT22;27892;52.378;13.122;2023-08-06T05:57:17;20.40;78.90
42227;DHT22;27892;52.378;13.122;2023-08-06T05:59:43;20.50;79.70
42227;DHT22;27892;52.378;13.122;2023-08-06T06:02:08;20.50;79.90
42227;DHT22;27892;52.378;13.122;2023-08-06T06:04:34;20.60;79.80
42227;DHT22;27892;52.378;13.122;2023-08-06T06:07:00;20.60;79.40
42227;DHT22;27892;52.378;13.122;2023-08-06T06:09:25;20.70;79.20
42227;DHT22;27892;52.378;13.122;2023-08-06T06:11:51;20.80;78.90
42227;DHT22;27892;52.378;13.122;2023-08-06T06:14:20;20.90;78.50
42227;DHT22;27892;52.378;13.122;2023-08-06T06:16:46;21.00;78.30
42227;DHT22;27892;52.378;13.122;2023-08-06T06:19:12;20.90;78.00
42227;DHT22;27892;52.378;13.122;2023-08-06T06:21:38;20.80;77.80
42227;DHT22;27892;52.378;13.122;2023-08-06T06:24:05;20.80;77.80
42227;DHT22;27892;52.378;13.122;2023-08-06T06:26:31;20.70;77.90
42227;DHT22;27892;52.378;13.122;2023-08-06T06:28:57;20.70;78.40
42227;DHT22;27892;52.378;13.122;2023-08-06T06:31:23;20.70;77.90
42227;DHT22;27892;52.378;13.122;2023-08-06T06:33:49;20.70;77.80
42227;DHT22;27892;52.378;13.122;2023-08-06T06:36:15;20.70;78.00
42227;DHT22;27892;52.378;13.122;2023-08-06T06:38:40;20.60;78.00
42227;DHT22;27892;52.378;13.122;2023-08-06T06:41:06;20.70;78.60
42227;DHT22;27892;52.378;13.122;2023-08-06T06:43:32;20.80;78.20
42227;DHT22;27892;52.378;13.122;2023-08-06T06:45:59;20.90;78.20
42227;DHT22;27892;52.378;13.122;2023-08-06T06:48:29;20.90;77.90
42227;DHT22;27892;52.378;13.122;2023-08-06T06:50:55;21.00;78.00
42227;DHT22;27892;52.378;13.122;2023-08-06T06:53:21;21.10;77.60
42227;DHT22;27892;52.378;13.122;2023-08-06T06:55:56;21.10;77.50
42227;DHT22;27892;52.378;13.122;2023-08-06T06:58:22;21.20;77.30
42227;DHT22;27892;52.378;13.122;2023-08-06T07:00:48;21.20;76.90
42227;DHT22;27892;52.378;13.122;2023-08-06T07:03:17;21.30;77.30
42227;DHT22;27892;52.378;13.122;2023-08-06T07:05:44;21.40;76.90
42227;DHT22;27892;52.378;13.122;2023-08-06T07:08:10;21.40;76.50
42227;DHT22;27892;52.378;13.122;2023-08-06T07:10:37;21.40;76.10
42227;DHT22;27892;52.378;13.122;2023-08-06T07:13:03;21.40;75.80
42227;DHT22;27892;52.378;13.122;2023-08-06T07:15:28;21.40;75.60
42227;DHT22;27892;52.378;13.122;2023-08-06T07:17:54;21.30;75.40
42227;DHT22;27892;52.378;13.122;2023-08-06T07:20:20;21.20;75.50
42227;DHT22;27892;52.378;13.122;2023-08-06T07:22:46;21.20;76.00
42227;DHT22;27892;52.378;13.122;2023-08-06T07:25:12;21.10;75.60
42227;DHT22;27892;52.378;13.122;2023-08-06T07:27:39;21.10;75.80
42227;DHT22;27892;52.378;13.122;2023-08-06T07:30:05;21.20;76.40
42227;DHT22;27892;52.378;13.122;2023-08-06T07:32:31;21.20;76.30
42227;DHT22;27892;52.378;13.122;2023-08-06T07:34:57;21.30;76.50
42227;DHT22;27892;52.378;13.122;2023-08-06T07:37:28;21.40;76.10
42227;DHT22;27892;52.378;13.122;2023-08-06T07:39:54;21.50;76.80
42227;DHT22;27892;52.378;13.122;2023-08-06T07:42:21;21.60;75.10
42227;DHT22;27892;52.378;13.122;2023-08-06T07:44:57;21.50;75.30
42227;DHT22;27892;52.378;13.122;2023-08-06T07:47:23;21.60;76.70
42227;DHT22;27892;52.378;13.122;2023-08-06T07:49:49;21.60;75.70
42227;DHT22;27892;52.378;13.122;2023-08-06T07:52:15;21.50;75.40
42227;DHT22;27892;52.378;13.122;2023-08-06T07:54:40;21.50;75.90
42227;DHT22;27892;52.378;13.122;2023-08-06T07:57:06;21.60;76.20
42227;DHT22;27892;52.378;13.122;2023-08-06T07:59:32;21.70;75.00
42227;DHT22;27892;52.378;13.122;2023-08-06T08:01:58;21.80;74.60
42227;DHT22;27892;52.378;13.122;2023-08-06T08:04:24;21.90;74.60
42227;DHT22;27892;52.378;13.122;2023-08-06T08:06:49;21.90;74.40
42227;DHT22;27892;52.378;13.122;2023-08-06T08:09:15;21.90;74.50
42227;DHT22;27892;52.378;13.122;2023-08-06T08:11:41;21.90;74.10
42227;DHT22;27892;52.378;13.122;2023-08-06T08:14:07;22.00;74.10
42227;DHT22;27892;52.378;13.122;2023-08-06T08:16:33;22.00;73.90
42227;DHT22;27892;52.378;13.122;2023-08-06T08:18:59;22.00;73.40
42227;DHT22;27892;52.378;13.122;2023-08-06T08:21:25;22.10;73.00
42227;DHT22;27892;52.378;13.122;2023-08-06T08:23:51;22.10;73.00
42227;DHT22;27892;52.378;13.122;2023-08-06T08:26:17;22.10;73.70
42227;DHT22;27892;52.378;13.122;2023-08-06T08:28:43;22.10;73.50
42227;DHT22;27892;52.378;13.122;2023-08-06T08:31:09;22.10;73.50
42227;DHT22;27892;52.378;13.122;2023-08-06T08:33:35;22.10;73.30
42227;DHT22;27892;52.378;13.122;2023-08-06T08:36:01;22.20;73.80
42227;DHT22;27892;52.378;13.122;2023-08-06T08:38:26;22.20;73.20
42227;DHT22;27892;52.378;13.122;2023-08-06T08:40:53;22.30;73.00
42227;DHT22;27892;52.378;13.122;2023-08-06T08:43:23;22.40;73.80
42227;DHT22;27892;52.378;13.122;2023-08-06T08:45:53;22.50;73.20
42227;DHT22;27892;52.378;13.122;2023-08-06T08:48:24;22.40;71.80
42227;DHT22;27892;52.378;13.122;2023-08-06T08:50:51;22.50;71.60
42227;DHT22;27892;52.378;13.122;2023-08-06T08:53:17;22.50;71.20
42227;DHT22;27892;52.378;13.122;2023-08-06T08:55:47;22.40;70.70
42227;DHT22;27892;52.378;13.122;2023-08-06T08:58:13;22.40;71.20
42227;DHT22;27892;52.378;13.122;2023-08-06T09:00:45;22.40;71.10
42227;DHT22;27892;52.378;13.122;2023-08-06T09:03:11;22.50;72.10
42227;DHT22;27892;52.378;13.122;2023-08-06T09:05:42;22.60;72.30
42227;DHT22;27892;52.378;13.122;2023-08-06T09:08:11;22.60;71.00
42227;DHT22;27892;52.378;13.122;2023-08-06T09:10:37;22.60;71.70
42227;DHT22;27892;52.378;13.122;2023-08-06T09:13:04;22.70;72.10
42227;DHT22;27892;52.378;13.122;2023-08-06T09:15:30;22.60;71.80
42227;DHT22;27892;52.378;13.122;2023-08-06T09:17:56;22.60;71.00
42227;DHT22;27892;52.378;13.122;2023-08-06T09:20:21;22.60;71.50
42227;DHT22;27892;52.378;13.122;2023-08-06T09:22:47;22.60;71.90
42227;DHT22;27892;52.378;13.122;2023-08-06T09:25:24;22.70;72.30
42227;DHT22;27892;52.378;13.122;2023-08-06T09:27:51;22.90;72.90
42227;DHT22;27892;52.378;13.122;2023-08-06T09:30:31;22.90;73.00
42227;DHT22;27892;52.378;13.122;2023-08-06T09:32:57;23.10;73.30
42227;DHT22;27892;52.378;13.122;2023-08-06T09:35:23;23.20;72.70
42227;DHT22;27892;52.378;13.122;2023-08-06T09:37:49;23.20;72.60
42227;DHT22;27892;52.378;13.122;2023-08-06T09:40:31;23.10;71.10
42227;DHT22;27892;52.378;13.122;2023-08-06T09:42:58;23.20;70.50
42227;DHT22;27892;52.378;13.122;2023-08-06T09:45:30;23.00;70.30
42227;DHT22;27892;52.378;13.122;2023-08-06T09:47:56;23.00;70.30
42227;DHT22;27892;52.378;13.122;2023-08-06T09:50:23;23.00;70.50
42227;DHT22;27892;52.378;13.122;2023-08-06T09:52:53;23.00;70.80
42227;DHT22;27892;52.378;13.122;2023-08-06T09:55:19;23.10;70.80
42227;DHT22;27892;52.378;13.122;2023-08-06T09:57:45;23.10;71.10
42227;DHT22;27892;52.378;13.122;2023-08-06T10:00:12;23.10;70.60
42227;DHT22;27892;52.378;13.122;2023-08-06T10:02:39;23.10;70.70
42227;DHT22;27892;52.378;13.122;2023-08-06T10:05:07;23.10;71.20
42227;DHT22;27892;52.378;13.122;2023-08-06T10:07:34;23.00;71.70
42227;DHT22;27892;52.378;13.122;2023-08-06T10:10:00;23.00;71.90
42227;DHT22;27892;52.378;13.122;2023-08-06T10:12:29;23.00;72.70
42227;DHT22;27892;52.378;13.122;2023-08-06T10:14:57;23.10;72.30
42227;DHT22;27892;52.378;13.122;2023-08-06T10:17:25;23.10;72.40
42227;DHT22;27892;52.378;13.122;2023-08-06T10:19:51;23.10;72.90
42227;DHT22;27892;52.378;13.122;2023-08-06T10:22:20;23.20;73.20
42227;DHT22;27892;52.378;13.122;2023-08-06T10:24:53;23.20;72.90
42227;DHT22;27892;52.378;13.122;2023-08-06T10:27:39;23.30;73.10
42227;DHT22;27892;52.378;13.122;2023-08-06T10:30:27;23.40;73.00
42227;DHT22;27892;52.378;13.122;2023-08-06T10:32:54;23.40;72.90
42227;DHT22;27892;52.378;13.122;2023-08-06T10:35:47;23.40;72.00
42227;DHT22;27892;52.378;13.122;2023-08-06T10:38:22;23.50;72.00
42227;DHT22;27892;52.378;13.122;2023-08-06T10:43:27;23.50;71.40
42227;DHT22;27892;52.378;13.122;2023-08-06T10:45:53;23.50;71.10
42227;DHT22;27892;52.378;13.122;2023-08-06T10:48:40;23.60;70.40
42227;DHT22;27892;52.378;13.122;2023-08-06T10:51:11;23.60;70.50
42227;DHT22;27892;52.378;13.122;2023-08-06T10:53:38;23.60;70.30
42227;DHT22;27892;52.378;13.122;2023-08-06T10:56:17;23.60;71.20
42227;DHT22;27892;52.378;13.122;2023-08-06T10:58:44;23.60;71.70
42227;DHT22;27892;52.378;13.122;2023-08-06T11:01:10;23.60;71.30
42227;DHT22;27892;52.378;13.122;2023-08-06T11:03:37;23.60;71.20
42227;DHT22;27892;52.378;13.122;2023-08-06T11:06:03;23.70;71.20
42227;DHT22;27892;52.378;13.122;2023-08-06T11:08:37;23.60;70.60
42227;DHT22;27892;52.378;13.122;2023-08-06T11:11:11;23.70;71.50
42227;DHT22;27892;52.378;13.122;2023-08-06T11:13:39;23.70;71.80
42227;DHT22;27892;52.378;13.122;2023-08-06T11:16:05;23.70;71.80
42227;DHT22;27892;52.378;13.122;2023-08-06T11:18:32;23.70;72.10
42227;DHT22;27892;52.378;13.122;2023-08-06T11:20:59;23.70;71.80
42227;DHT22;27892;52.378;13.122;2023-08-06T11:23:27;23.70;71.30
42227;DHT22;27892;52.378;13.122;2023-08-06T11:25:54;23.70;71.70
42227;DHT22;27892;52.378;13.122;2023-08-06T11:28:20;23.70;71.20
42227;DHT22;27892;52.378;13.122;2023-08-06T11:30:49;23.70;71.50
42227;DHT22;27892;52.378;13.122;2023-08-06T11:33:29;23.70;70.70
42227;DHT22;27892;52.378;13.122;2023-08-06T11:35:56;23.80;71.50
42227;DHT22;27892;52.378;13.122;2023-08-06T11:38:25;23.80;71.30
42227;DHT22;27892;52.378;13.122;2023-08-06T11:40:51;23.70;71.20
42227;DHT22;27892;52.378;13.122;2023-08-06T11:43:19;23.80;72.00
42227;DHT22;27892;52.378;13.122;2023-08-06T11:45:46;23.80;71.00
42227;DHT22;27892;52.378;13.122;2023-08-06T11:48:12;23.80;70.80
42227;DHT22;27892;52.378;13.122;2023-08-06T11:50:38;23.80;71.50
42227;DHT22;27892;52.378;13.122;2023-08-06T11:53:07;23.80;71.70
42227;DHT22;27892;52.378;13.122;2023-08-06T11:55:33;23.80;71.40
42227;DHT22;27892;52.378;13.122;2023-08-06T11:58:03;23.80;71.10
42227;DHT22;27892;52.378;13.122;2023-08-06T12:00:29;23.90;71.20
42227;DHT22;27892;52.378;13.122;2023-08-06T12:02:56;23.90;71.20
42227;DHT22;27892;52.378;13.122;2023-08-06T12:05:23;23.90;71.40
42227;DHT22;27892;52.378;13.122;2023-08-06T12:07:56;23.90;71.60
42227;DHT22;27892;52.378;13.122;2023-08-06T12:10:25;23.90;71.30
42227;DHT22;27892;52.378;13.122;2023-08-06T12:12:51;24.00;71.20
42227;DHT22;27892;52.378;13.122;2023-08-06T12:15:17;24.00;71.00
42227;DHT22;27892;52.378;13.122;2023-08-06T12:17:43;24.00;71.80
42227;DHT22;27892;52.378;13.122;2023-08-06T12:20:10;24.00;70.40
42227;DHT22;27892;52.378;13.122;2023-08-06T12:22:36;24.10;71.30
42227;DHT22;27892;52.378;13.122;2023-08-06T12:25:12;24.10;70.70
42227;DHT22;27892;52.378;13.122;2023-08-06T12:27:39;24.10;70.70
42227;DHT22;27892;52.378;13.122;2023-08-06T12:30:06;24.10;70.10
42227;DHT22;27892;52.378;13.122;2023-08-06T12:32:33;24.10;70.40
42227;DHT22;27892;52.378;13.122;2023-08-06T12:34:59;24.20;70.60
42227;DHT22;27892;52.378;13.122;2023-08-06T12:37:26;24.20;70.00
42227;DHT22;27892;52.378;13.122;2023-08-06T12:39:51;24.20;69.80
42227;DHT22;27892;52.378;13.122;2023-08-06T12:42:17;24.20;69.70
42227;DHT22;27892;52.378;13.122;2023-08-06T12:44:43;24.20;68.60
42227;DHT22;27892;52.378;13.122;2023-08-06T12:47:09;24.10;68.80
42227;DHT22;27892;52.378;13.122;2023-08-06T12:49:35;24.10;68.30
42227;DHT22;27892;52.378;13.122;2023-08-06T12:52:00;24.10;68.60
42227;DHT22;27892;52.378;13.122;2023-08-06T12:54:27;24.10;69.00
42227;DHT22;27892;52.378;13.122;2023-08-06T12:56:53;24.10;69.10
42227;DHT22;27892;52.378;13.122;2023-08-06T12:59:20;24.10;69.20
42227;DHT22;27892;52.378;13.122;2023-08-06T13:01:46;24.10;68.70
42227;DHT22;27892;52.378;13.122;2023-08-06T13:04:12;24.00;69.40
42227;DHT22;27892;52.378;13.122;2023-08-06T13:06:38;24.00;69.00
42227;DHT22;27892;52.378;13.122;2023-08-06T13:09:12;24.00;69.30
42227;DHT22;27892;52.378;13.122;2023-08-06T13:11:39;24.00;70.00
42227;DHT22;27892;52.378;13.122;2023-08-06T13:14:06;24.10;69.50
42227;DHT22;27892;52.378;13.122;2023-08-06T13:16:33;24.10;69.50
42227;DHT22;27892;52.378;13.122;2023-08-06T13:18:59;24.10;69.70
42227;DHT22;27892;52.378;13.122;2023-08-06T13:21:31;24.00;69.80
42227;DHT22;27892;52.378;13.122;2023-08-06T13:23:57;24.10;70.30
42227;DHT22;27892;52.378;13.122;2023-08-06T13:26:23;24.10;70.80
42227;DHT22;27892;52.378;13.122;2023-08-06T13:28:48;24.00;70.90
42227;DHT22;27892;52.378;13.122;2023-08-06T13:31:14;24.00;70.70
42227;DHT22;27892;52.378;13.122;2023-08-06T13:33:40;24.00;71.00
42227;DHT22;27892;52.378;13.122;2023-08-06T13:36:06;24.00;71.00
42227;DHT22;27892;52.378;13.122;2023-08-06T13:38:31;24.10;70.70
42227;DHT22;27892;52.378;13.122;2023-08-06T13:40:57;24.10;70.40
42227;DHT22;27892;52.378;13.122;2023-08-06T13:43:24;24.00;70.20
42227;DHT22;27892;52.378;13.122;2023-08-06T13:45:50;23.90;70.30
42227;DHT22;27892;52.378;13.122;2023-08-06T13:48:15;23.80;68.30
42227;DHT22;27892;52.378;13.122;2023-08-06T13:50:41;23.60;66.50
42227;DHT22;27892;52.378;13.122;2023-08-06T13:53:07;23.30;65.20
42227;DHT22;27892;52.378;13.122;2023-08-06T13:55:32;23.00;63.30
42227;DHT22;27892;52.378;13.122;2023-08-06T13:57:58;22.90;65.00
42227;DHT22;27892;52.378;13.122;2023-08-06T14:00:24;22.80;65.30
42227;DHT22;27892;52.378;13.122;2023-08-06T14:02:50;22.70;64.80
42227;DHT22;27892;52.378;13.122;2023-08-06T14:05:15;22.50;64.20
42227;DHT22;27892;52.378;13.122;2023-08-06T14:07:41;22.30;64.70
42227;DHT22;27892;52.378;13.122;2023-08-06T14:10:07;22.10;65.50
42227;DHT22;27892;52.378;13.122;2023-08-06T14:12:34;22.10;66.50
42227;DHT22;27892;52.378;13.122;2023-08-06T14:15:00;22.20;67.10
42227;DHT22;27892;52.378;13.122;2023-08-06T14:17:27;22.30;67.80
42227;DHT22;27892;52.378;13.122;2023-08-06T14:19:53;22.40;67.10
42227;DHT22;27892;52.378;13.122;2023-08-06T14:22:18;22.20;65.80
42227;DHT22;27892;52.378;13.122;2023-08-06T14:24:44;22.10;67.30
42227;DHT22;27892;52.378;13.122;2023-08-06T14:27:09;22.00;68.10
42227;DHT22;27892;52.378;13.122;2023-08-06T14:29:35;22.00;67.90
42227;DHT22;27892;52.378;13.122;2023-08-06T14:32:01;21.90;68.90
42227;DHT22;27892;52.378;13.122;2023-08-06T14:34:26;21.90;69.40
42227;DHT22;27892;52.378;13.122;2023-08-06T14:36:53;21.80;69.30
42227;DHT22;27892;52.378;13.122;2023-08-06T14:39:18;21.70;70.20
42227;DHT22;27892;52.378;13.122;2023-08-06T14:41:44;21.80;71.00
42227;DHT22;27892;52.378;13.122;2023-08-06T14:44:09;21.80;71.50
42227;DHT22;27892;52.378;13.122;2023-08-06T14:46:35;21.80;72.00
42227;DHT22;27892;52.378;13.122;2023-08-06T14:49:01;21.80;72.20
42227;DHT22;27892;52.378;13.122;2023-08-06T14:51:26;21.80;72.50
42227;DHT22;27892;52.378;13.122;2023-08-06T14:53:53;21.80;73.00
42227;DHT22;27892;52.378;13.122;2023-08-06T14:56:19;21.70;72.90
42227;DHT22;27892;52.378;13.122;2023-08-06T14:58:44;21.50;73.40
42227;DHT22;27892;52.378;13.122;2023-08-06T15:01:10;21.40;74.30
42227;DHT22;27892;52.378;13.122;2023-08-06T15:03:36;21.30;74.60
42227;DHT22;27892;52.378;13.122;2023-08-06T15:06:03;21.30;74.90
42227;DHT22;27892;52.378;13.122;2023-08-06T15:08:29;21.40;74.70
42227;DHT22;27892;52.378;13.122;2023-08-06T15:10:54;21.40;75.40
42227;DHT22;27892;52.378;13.122;2023-08-06T15:13:20;21.40;76.30
42227;DHT22;27892;52.378;13.122;2023-08-06T15:15:47;21.50;76.10
42227;DHT22;27892;52.378;13.122;2023-08-06T15:18:13;21.50;75.60
42227;DHT22;27892;52.378;13.122;2023-08-06T15:20:39;21.50;75.50
42227;DHT22;27892;52.378;13.122;2023-08-06T15:23:04;21.40;75.30